Time;durP1;ratioP1;P1;durP2;ratioP2;P2;SDS_P1;SDS_P2;PMS_P1;PMS_P2;Temp;Humidity;BMP_temperature;BMP_pressure;BME280_temperature;BME280_humidity;BME280_pressure;Samples;Min_cycle;Max_cycle;Signal;HPM_P1;HPM_P2
2022/11/08 00:01:57;;;;;;;14.23;4.35;;;;;;;;;;5104057;27;20039;-80
2022/11/08 00:04:23;;;;;;;12.05;4.68;;;;;;;;;;5132490;27;20051;-80
2022/11/08 00:15:04;;;;;;;12.15;5.00;;;;;;;;;;5126182;27;20047;-79
2022/11/08 00:17:31;;;;;;;14.75;4.50;;;;;;;;;;5108843;27;20380;-80
2022/11/08 00:19:57;;;;;;;12.20;4.60;;;;;;;;;;5108603;27;20130;-79
2022/11/08 00:22:23;;;;;;;14.77;5.30;;;;;;;;;;5111517;27;20047;-79
2022/11/08 00:24:50;;;;;;;11.70;4.90;;;;;;;;;;5105502;27;20113;-79
2022/11/08 00:27:17;;;;;;;14.20;5.07;;;;;;;;;;5110923;27;20050;-79
2022/11/08 00:29:43;;;;;;;11.75;4.75;;;;;;;;;;5123326;27;20053;-80
2022/11/08 00:32:14;;;;;;;14.10;4.57;;;;;;;;;;5100561;28;20043;-80
2022/11/08 00:34:40;;;;;;;10.90;4.00;;;;;;;;;;5139381;27;20058;-79
2022/11/08 00:37:06;;;;;;;11.23;4.13;;;;;;;;;;5116371;27;20035;-79
2022/11/08 00:39:32;;;;;;;18.35;5.30;;;;;;;;;;5112035;27;20073;-80
2022/11/08 00:41:58;;;;;;;13.98;4.60;;;;;;;;;;5120634;27;20043;-80
2022/11/08 00:44:24;;;;;;;14.27;4.45;;;;;;;;;;5124435;27;20109;-80
2022/11/08 00:46:50;;;;;;;12.65;4.00;;;;;;;;;;5102893;28;20478;-80
2022/11/08 00:49:17;;;;;;;9.05;4.28;;;;;;;;;;5139232;27;20046;-81
2022/11/08 00:51:43;;;;;;;12.23;4.13;;;;;;;;;;5132671;27;20068;-79
2022/11/08 00:54:10;;;;;;;9.13;3.63;;;;;;;;;;5128428;27;20041;-80
2022/11/08 00:56:36;;;;;;;8.60;3.67;;;;;;;;;;5128790;27;20043;-80
2022/11/08 00:59:02;;;;;;;9.55;3.83;;;;;;;;;;5129084;27;20050;-79
2022/11/08 01:01:31;;;;;;;8.13;4.03;;;;;;;;;;5124942;27;20040;-80
2022/11/08 01:03:57;;;;;;;8.23;4.30;;;;;;;;;;5121573;27;20077;-80
2022/11/08 01:06:24;;;;;;;10.00;4.28;;;;;;;;;;5112121;27;20058;-79
2022/11/08 01:08:50;;;;;;;7.03;3.95;;;;;;;;;;5130500;27;20032;-79
2022/11/08 01:11:18;;;;;;;10.55;4.05;;;;;;;;;;5126377;27;20039;-80
2022/11/08 01:13:44;;;;;;;9.50;3.60;;;;;;;;;;5130495;27;20466;-79
2022/11/08 01:16:12;;;;;;;12.30;3.85;;;;;;;;;;5131831;27;20043;-79
2022/11/08 01:18:38;;;;;;;8.95;3.90;;;;;;;;;;5105094;27;20047;-80
2022/11/08 01:21:04;;;;;;;7.80;3.40;;;;;;;;;;5106677;27;20550;-80
2022/11/08 01:23:31;;;;;;;10.73;3.90;;;;;;;;;;5106819;27;20051;-79
2022/11/08 01:26:01;;;;;;;13.10;4.35;;;;;;;;;;5107485;27;20058;-80
2022/11/08 01:28:27;;;;;;;8.43;3.85;;;;;;;;;;5123241;28;20043;-80
2022/11/08 01:30:53;;;;;;;13.57;4.10;;;;;;;;;;5128863;27;20036;-80
2022/11/08 01:33:19;;;;;;;10.75;3.92;;;;;;;;;;5131660;27;20112;-80
2022/11/08 01:35:47;;;;;;;10.60;3.55;;;;;;;;;;5126908;27;20044;-80
2022/11/08 01:38:13;;;;;;;7.13;3.45;;;;;;;;;;5131832;27;20039;-80
2022/11/08 01:40:46;;;;;;;9.88;3.78;;;;;;;;;;5109905;27;20062;-80
2022/11/08 01:43:25;;;;;;;7.53;3.80;;;;;;;;;;5107834;27;20040;-80
2022/11/08 01:46:09;;;;;;;8.70;3.63;;;;;;;;;;5123927;27;20047;-79
2022/11/08 01:48:38;;;;;;;10.48;4.65;;;;;;;;;;5127078;27;20568;-79
2022/11/08 01:51:06;;;;;;;11.60;3.72;;;;;;;;;;5116311;27;20043;-80
2022/11/08 01:53:32;;;;;;;11.63;4.22;;;;;;;;;;5111335;27;20035;-80
2022/11/08 01:56:01;;;;;;;12.60;3.80;;;;;;;;;;5108814;27;20065;-79
2022/11/08 01:58:30;;;;;;;10.30;3.90;;;;;;;;;;5114110;27;20146;-80
2022/11/08 02:00:57;;;;;;;12.77;3.90;;;;;;;;;;5108553;27;20039;-80
2022/11/08 02:03:23;;;;;;;7.05;3.33;;;;;;;;;;5111183;27;20126;-80
2022/11/08 02:05:49;;;;;;;9.07;3.90;;;;;;;;;;5109199;27;20046;-80
2022/11/08 02:08:21;;;;;;;7.57;3.30;;;;;;;;;;5104603;27;20047;-79
2022/11/08 02:10:49;;;;;;;13.32;4.53;;;;;;;;;;5129802;27;20038;-80
2022/11/08 02:13:16;;;;;;;7.95;3.55;;;;;;;;;;5104543;27;20100;-80
2022/11/08 02:15:42;;;;;;;9.02;3.42;;;;;;;;;;5133720;27;20039;-79
2022/11/08 02:18:09;;;;;;;8.93;3.50;;;;;;;;;;5109317;28;20051;-79
2022/11/08 02:20:35;;;;;;;9.63;3.70;;;;;;;;;;5105540;27;20126;-80
2022/11/08 02:23:06;;;;;;;11.10;3.47;;;;;;;;;;5112976;27;20494;-79
2022/11/08 02:25:32;;;;;;;10.00;3.55;;;;;;;;;;5127726;27;20035;-79
2022/11/08 02:27:58;;;;;;;10.15;3.60;;;;;;;;;;5122904;27;20500;-80
2022/11/08 02:30:24;;;;;;;8.50;3.60;;;;;;;;;;5124915;27;20039;-80
2022/11/08 02:32:50;;;;;;;8.95;3.85;;;;;;;;;;5132224;27;20059;-79
2022/11/08 02:35:18;;;;;;;8.65;4.30;;;;;;;;;;5107178;27;21124;-79
2022/11/08 02:37:45;;;;;;;9.43;3.50;;;;;;;;;;5125769;27;20494;-79
2022/11/08 02:40:11;;;;;;;10.07;3.70;;;;;;;;;;5107920;27;20043;-79
2022/11/08 02:42:37;;;;;;;11.80;3.58;;;;;;;;;;5109334;27;20455;-79
2022/11/08 02:45:05;;;;;;;11.38;3.97;;;;;;;;;;5106218;27;20483;-79
2022/11/08 02:47:31;;;;;;;8.18;3.40;;;;;;;;;;5130248;27;20513;-79
2022/11/08 02:49:57;;;;;;;8.68;4.15;;;;;;;;;;5112431;27;20074;-79
2022/11/08 02:52:23;;;;;;;7.35;3.53;;;;;;;;;;5124251;27;20043;-79
2022/11/08 02:54:49;;;;;;;7.45;3.47;;;;;;;;;;5106698;27;20054;-79
2022/11/08 02:57:15;;;;;;;8.13;3.85;;;;;;;;;;5122155;27;20060;-80
2022/11/08 02:59:41;;;;;;;9.85;3.70;;;;;;;;;;5111275;27;20042;-79
2022/11/08 03:02:07;;;;;;;12.20;3.83;;;;;;;;;;5107225;27;20078;-79
2022/11/08 03:04:33;;;;;;;12.68;3.72;;;;;;;;;;5129135;27;20074;-79
2022/11/08 03:07:00;;;;;;;7.78;3.55;;;;;;;;;;5106678;27;20046;-79
2022/11/08 03:09:26;;;;;;;7.85;3.85;;;;;;;;;;5104982;27;20467;-79
2022/11/08 03:11:52;;;;;;;8.77;3.85;;;;;;;;;;5123411;27;20035;-79
2022/11/08 03:14:18;;;;;;;8.65;3.35;;;;;;;;;;5130963;27;20044;-79
2022/11/08 03:16:44;;;;;;;9.98;3.67;;;;;;;;;;5130552;27;20039;-79
2022/11/08 03:19:11;;;;;;;6.78;3.42;;;;;;;;;;5128905;27;20082;-79
2022/11/08 03:21:37;;;;;;;7.85;4.25;;;;;;;;;;5115662;27;20069;-79
2022/11/08 03:24:04;;;;;;;7.55;3.60;;;;;;;;;;5110605;27;20047;-79
2022/11/08 03:26:31;;;;;;;8.63;3.78;;;;;;;;;;5110162;27;20051;-79
2022/11/08 03:28:57;;;;;;;5.63;3.53;;;;;;;;;;5113303;27;20087;-79
2022/11/08 03:31:23;;;;;;;7.88;3.50;;;;;;;;;;5128208;27;20059;-79
2022/11/08 03:33:49;;;;;;;7.30;3.40;;;;;;;;;;5107470;27;20059;-79
2022/11/08 03:36:18;;;;;;;8.90;4.00;;;;;;;;;;5112950;27;20142;-80
2022/11/08 03:38:44;;;;;;;7.90;3.40;;;;;;;;;;5106639;27;20097;-80
2022/11/08 03:41:10;;;;;;;7.38;3.47;;;;;;;;;;5122694;27;20085;-79
2022/11/08 03:43:36;;;;;;;7.63;3.50;;;;;;;;;;5105976;27;20047;-80
2022/11/08 03:46:02;;;;;;;10.02;3.65;;;;;;;;;;5128656;27;20036;-80
2022/11/08 03:48:28;;;;;;;7.60;3.58;;;;;;;;;;5111717;27;20670;-80
2022/11/08 03:50:54;;;;;;;5.40;3.42;;;;;;;;;;5112088;27;20039;-80
2022/11/08 03:53:20;;;;;;;8.20;3.45;;;;;;;;;;5129834;27;20047;-80
2022/11/08 03:55:46;;;;;;;6.43;3.40;;;;;;;;;;5127294;27;20458;-79
2022/11/08 03:58:12;;;;;;;9.55;3.38;;;;;;;;;;5112575;27;20043;-80
2022/11/08 04:00:38;;;;;;;6.97;3.40;;;;;;;;;;5108916;27;20043;-80
2022/11/08 04:03:04;;;;;;;9.15;3.75;;;;;;;;;;5107643;27;20482;-79
2022/11/08 04:05:34;;;;;;;5.70;3.60;;;;;;;;;;5102501;27;20065;-80
2022/11/08 04:08:00;;;;;;;8.93;3.78;;;;;;;;;;5108774;27;20070;-79
2022/11/08 04:10:26;;;;;;;5.78;3.00;;;;;;;;;;5107769;27;20482;-80
2022/11/08 04:15:40;;;;;;;9.15;3.28;;;;;;;;;;5105689;27;20138;-80
2022/11/08 04:21:22;;;;;;;6.40;3.20;;;;;;;;;;5062215;27;20067;-79
2022/11/08 04:23:49;;;;;;;10.10;3.17;;;;;;;;;;5125459;27;20040;-79
2022/11/08 04:26:15;;;;;;;5.88;3.70;;;;;;;;;;5125066;27;20035;-80
2022/11/08 04:28:42;;;;;;;9.15;3.38;;;;;;;;;;5106061;27;20058;-79
2022/11/08 04:31:18;;;;;;;7.28;3.03;;;;;;;;;;5106831;27;20047;-79
2022/11/08 04:33:44;;;;;;;9.65;3.08;;;;;;;;;;5109514;27;20116;-80
2022/11/08 04:36:11;;;;;;;7.80;3.63;;;;;;;;;;5107886;27;20503;-79
2022/11/08 04:38:38;;;;;;;6.35;3.10;;;;;;;;;;5106637;27;20502;-80
2022/11/08 04:41:05;;;;;;;7.82;3.60;;;;;;;;;;5120926;27;20402;-80
2022/11/08 04:43:31;;;;;;;7.72;3.50;;;;;;;;;;5109920;27;20112;-80
2022/11/08 04:46:01;;;;;;;6.80;3.47;;;;;;;;;;5109267;28;20054;-79
2022/11/08 04:48:27;;;;;;;6.63;3.20;;;;;;;;;;5102071;28;20124;-80
2022/11/08 04:50:53;;;;;;;6.53;3.45;;;;;;;;;;5126117;27;20058;-80
2022/11/08 04:53:20;;;;;;;5.80;3.20;;;;;;;;;;5130669;28;20509;-79
2022/11/08 04:55:46;;;;;;;7.82;3.45;;;;;;;;;;5088359;28;20043;-80
2022/11/08 04:58:12;;;;;;;6.75;3.35;;;;;;;;;;5108147;28;20062;-79
2022/11/08 05:00:38;;;;;;;7.65;3.50;;;;;;;;;;5107607;28;20060;-79
2022/11/08 05:03:04;;;;;;;5.20;2.92;;;;;;;;;;5106958;28;20047;-79
2022/11/08 05:05:30;;;;;;;6.18;3.10;;;;;;;;;;5105045;27;20555;-79
2022/11/08 05:07:56;;;;;;;6.90;3.35;;;;;;;;;;5123198;27;20075;-80
2022/11/08 05:10:22;;;;;;;6.28;3.35;;;;;;;;;;5108349;27;20081;-80
2022/11/08 05:12:48;;;;;;;7.38;3.80;;;;;;;;;;5129666;27;20494;-80
2022/11/08 05:15:14;;;;;;;6.75;3.50;;;;;;;;;;5111983;27;20042;-80
2022/11/08 05:17:40;;;;;;;6.38;3.63;;;;;;;;;;5107499;27;20051;-80
2022/11/08 05:25:40;;;;;;;7.32;3.60;;;;;;;;;;5107304;27;20047;-79
2022/11/08 05:28:06;;;;;;;7.15;3.70;;;;;;;;;;5109901;27;20069;-79
2022/11/08 05:30:32;;;;;;;6.22;3.80;;;;;;;;;;5131636;27;20043;-79
2022/11/08 05:32:58;;;;;;;9.07;4.05;;;;;;;;;;5115128;27;20180;-79
2022/11/08 05:35:24;;;;;;;6.97;3.40;;;;;;;;;;5109839;27;20114;-80
2022/11/08 05:37:50;;;;;;;7.88;3.70;;;;;;;;;;5129386;27;20055;-79
2022/11/08 05:40:16;;;;;;;7.85;3.30;;;;;;;;;;5131399;27;20099;-79
2022/11/08 05:42:42;;;;;;;6.25;3.83;;;;;;;;;;5104093;27;20423;-82
2022/11/08 05:45:08;;;;;;;6.00;3.40;;;;;;;;;;5105737;27;20056;-80
2022/11/08 05:47:34;;;;;;;6.68;3.47;;;;;;;;;;5108443;27;20043;-79
2022/11/08 05:50:00;;;;;;;7.72;3.47;;;;;;;;;;5109152;27;20143;-79
2022/11/08 05:52:26;;;;;;;7.30;3.40;;;;;;;;;;5104475;27;20120;-80
2022/11/08 05:54:52;;;;;;;6.60;3.47;;;;;;;;;;5107429;27;20047;-79
2022/11/08 05:57:18;;;;;;;8.00;3.55;;;;;;;;;;5103674;27;20048;-79
2022/11/08 05:59:44;;;;;;;8.93;3.60;;;;;;;;;;5110203;27;20114;-79
2022/11/08 06:02:10;;;;;;;11.75;3.58;;;;;;;;;;5109189;27;20058;-80
2022/11/08 06:04:36;;;;;;;8.30;3.42;;;;;;;;;;5133104;27;20398;-79
2022/11/08 06:07:02;;;;;;;7.20;4.03;;;;;;;;;;5107419;27;20043;-79
2022/11/08 06:09:28;;;;;;;6.88;3.05;;;;;;;;;;5101866;27;20095;-80
2022/11/08 06:11:54;;;;;;;6.85;3.75;;;;;;;;;;5130831;27;20373;-79
2022/11/08 06:14:20;;;;;;;5.18;3.53;;;;;;;;;;5123090;27;20044;-79
2022/11/08 06:16:46;;;;;;;8.10;3.80;;;;;;;;;;5126855;27;20077;-80
2022/11/08 06:19:12;;;;;;;8.02;3.72;;;;;;;;;;5114101;27;20474;-79
2022/11/08 06:21:38;;;;;;;6.82;3.55;;;;;;;;;;5111442;27;20092;-80
2022/11/08 06:24:04;;;;;;;6.75;3.47;;;;;;;;;;5132004;27;20047;-80
2022/11/08 06:26:30;;;;;;;7.10;3.42;;;;;;;;;;5127365;27;20047;-78
2022/11/08 06:29:00;;;;;;;8.13;3.55;;;;;;;;;;5123796;27;20092;-80
2022/11/08 06:31:26;;;;;;;5.50;3.42;;;;;;;;;;5126656;27;20527;-80
2022/11/08 06:33:52;;;;;;;6.53;3.50;;;;;;;;;;5130105;27;20055;-79
2022/11/08 06:36:19;;;;;;;7.45;4.22;;;;;;;;;;5109795;27;20058;-79
2022/11/08 06:38:46;;;;;;;7.22;3.53;;;;;;;;;;5132485;27;20495;-79
2022/11/08 06:41:16;;;;;;;5.80;3.30;;;;;;;;;;5104351;27;20035;-79
2022/11/08 06:43:42;;;;;;;9.70;3.95;;;;;;;;;;5102350;27;20047;-79
2022/11/08 06:46:08;;;;;;;5.03;3.53;;;;;;;;;;5125287;27;20064;-79
2022/11/08 06:48:34;;;;;;;5.28;3.17;;;;;;;;;;5129445;27;20461;-79
2022/11/08 06:51:00;;;;;;;5.72;3.58;;;;;;;;;;5106501;27;20039;-79
2022/11/08 06:53:26;;;;;;;8.30;4.03;;;;;;;;;;5103771;27;20044;-79
2022/11/08 06:55:53;;;;;;;7.10;3.50;;;;;;;;;;5100528;27;20043;-79
2022/11/08 06:58:19;;;;;;;6.93;3.35;;;;;;;;;;5108436;27;20139;-79
2022/11/08 07:00:45;;;;;;;8.02;3.40;;;;;;;;;;5112269;27;20159;-79
2022/11/08 07:03:12;;;;;;;9.45;3.97;;;;;;;;;;5125826;27;20170;-79
2022/11/08 07:05:38;;;;;;;8.30;3.75;;;;;;;;;;5129162;27;20042;-79
2022/11/08 07:08:04;;;;;;;8.80;3.70;;;;;;;;;;5104825;27;20173;-79
2022/11/08 07:10:31;;;;;;;7.63;3.40;;;;;;;;;;5105758;27;20039;-79
2022/11/08 07:13:02;;;;;;;7.80;3.20;;;;;;;;;;5132587;27;20672;-79
2022/11/08 07:15:28;;;;;;;7.88;3.53;;;;;;;;;;5130305;27;20051;-79
2022/11/08 07:18:04;;;;;;;6.95;3.70;;;;;;;;;;5127072;27;20501;-79
2022/11/08 07:20:30;;;;;;;5.07;3.53;;;;;;;;;;5128702;27;20042;-79
2022/11/08 07:22:57;;;;;;;6.65;3.38;;;;;;;;;;5112869;27;20039;-79
2022/11/08 07:25:23;;;;;;;8.05;3.50;;;;;;;;;;5110369;27;20454;-79
2022/11/08 07:27:49;;;;;;;6.18;3.50;;;;;;;;;;5113156;27;20036;-79
2022/11/08 07:30:15;;;;;;;7.82;3.30;;;;;;;;;;5106197;27;20049;-79
2022/11/08 07:32:41;;;;;;;9.10;3.30;;;;;;;;;;5112859;27;20051;-79
2022/11/08 07:35:07;;;;;;;5.70;3.17;;;;;;;;;;5133194;27;20039;-78
2022/11/08 07:37:33;;;;;;;6.13;3.10;;;;;;;;;;5108649;27;20078;-79
2022/11/08 07:39:59;;;;;;;8.30;3.63;;;;;;;;;;5119548;27;20070;-79
2022/11/08 07:42:25;;;;;;;5.90;3.25;;;;;;;;;;5108065;27;20149;-79
2022/11/08 07:44:51;;;;;;;7.07;3.67;;;;;;;;;;5127326;27;20049;-79
2022/11/08 07:47:20;;;;;;;5.85;3.15;;;;;;;;;;5130010;27;20043;-78
2022/11/08 07:49:49;;;;;;;5.28;3.42;;;;;;;;;;5140071;27;20039;-79
2022/11/08 07:52:15;;;;;;;5.40;3.10;;;;;;;;;;5130675;27;20050;-78
2022/11/08 07:54:41;;;;;;;5.40;2.53;;;;;;;;;;5131798;27;20443;-78
2022/11/08 07:57:07;;;;;;;6.03;3.05;;;;;;;;;;5101402;27;20036;-79
2022/11/08 07:59:33;;;;;;;3.70;2.80;;;;;;;;;;5112090;27;20121;-78
2022/11/08 08:01:59;;;;;;;3.40;2.80;;;;;;;;;;5131709;27;20043;-79
2022/11/08 08:04:25;;;;;;;6.03;2.90;;;;;;;;;;5111310;27;20039;-79
2022/11/08 08:06:51;;;;;;;5.78;2.67;;;;;;;;;;5108253;27;20441;-79
2022/11/08 08:09:17;;;;;;;4.68;2.50;;;;;;;;;;5113874;27;20047;-79
2022/11/08 08:11:43;;;;;;;2.97;2.50;;;;;;;;;;5107777;27;20040;-79
2022/11/08 08:14:09;;;;;;;5.93;3.05;;;;;;;;;;5128190;27;20474;-78
2022/11/08 08:16:35;;;;;;;4.45;2.90;;;;;;;;;;5113138;27;20074;-79
2022/11/08 08:19:01;;;;;;;3.40;2.53;;;;;;;;;;5106943;27;20519;-79
2022/11/08 08:21:27;;;;;;;2.90;2.50;;;;;;;;;;5114529;27;20043;-79
2022/11/08 08:23:53;;;;;;;3.50;2.60;;;;;;;;;;5120682;27;20130;-79
2022/11/08 08:26:19;;;;;;;6.90;3.10;;;;;;;;;;5103561;27;20126;-79
2022/11/08 08:28:45;;;;;;;4.43;2.50;;;;;;;;;;5122857;27;20545;-79
2022/11/08 08:31:11;;;;;;;5.55;2.80;;;;;;;;;;5111178;27;20099;-80
2022/11/08 08:33:37;;;;;;;4.43;2.90;;;;;;;;;;5112125;28;20055;-79
2022/11/08 08:36:04;;;;;;;5.13;2.70;;;;;;;;;;5129159;27;20467;-79
2022/11/08 08:38:31;;;;;;;6.05;2.65;;;;;;;;;;5127858;27;20055;-79
2022/11/08 08:40:57;;;;;;;6.90;3.10;;;;;;;;;;5108907;28;20092;-80
2022/11/08 08:43:28;;;;;;;6.18;2.72;;;;;;;;;;5108139;28;20126;-80
2022/11/08 08:46:01;;;;;;;3.63;2.53;;;;;;;;;;5105499;28;20046;-79
2022/11/08 08:48:28;;;;;;;3.90;2.88;;;;;;;;;;5106138;28;20050;-79
2022/11/08 08:50:54;;;;;;;2.80;2.50;;;;;;;;;;5104547;28;20579;-78
2022/11/08 08:53:20;;;;;;;3.00;2.60;;;;;;;;;;5127507;28;20039;-78
2022/11/08 08:55:52;;;;;;;2.88;2.60;;;;;;;;;;5101018;28;20051;-78
2022/11/08 08:58:19;;;;;;;2.95;2.70;;;;;;;;;;5105586;28;20054;-79
2022/11/08 09:00:45;;;;;;;4.82;2.60;;;;;;;;;;5131416;28;20047;-79
2022/11/08 09:03:12;;;;;;;4.35;2.80;;;;;;;;;;5126162;28;20054;-80
2022/11/08 09:05:42;;;;;;;6.28;2.78;;;;;;;;;;5107915;27;20117;-79
2022/11/08 09:08:09;;;;;;;4.53;2.50;;;;;;;;;;5106586;27;20179;-79
2022/11/08 09:10:35;;;;;;;4.38;2.75;;;;;;;;;;5117677;28;20043;-80
2022/11/08 09:13:02;;;;;;;4.80;3.00;;;;;;;;;;5129773;28;20043;-79
2022/11/08 09:15:28;;;;;;;3.20;2.63;;;;;;;;;;5129739;28;20050;-78
2022/11/08 09:17:54;;;;;;;4.15;2.55;;;;;;;;;;5107285;27;20035;-79
2022/11/08 09:20:20;;;;;;;5.60;2.92;;;;;;;;;;5091436;27;20059;-79
2022/11/08 09:22:46;;;;;;;3.00;2.70;;;;;;;;;;5130047;27;20077;-83
2022/11/08 09:25:12;;;;;;;4.45;2.60;;;;;;;;;;5113082;28;20083;-78
2022/11/08 09:27:38;;;;;;;3.40;2.90;;;;;;;;;;5104495;27;20042;-80
2022/11/08 09:30:05;;;;;;;4.25;2.90;;;;;;;;;;5112499;27;20047;-79
2022/11/08 09:32:31;;;;;;;4.88;2.78;;;;;;;;;;5122227;27;20059;-79
2022/11/08 09:34:58;;;;;;;4.32;2.78;;;;;;;;;;5114761;27;20066;-79
2022/11/08 09:37:25;;;;;;;5.28;2.78;;;;;;;;;;5112073;28;20160;-79
2022/11/08 09:39:51;;;;;;;6.70;2.92;;;;;;;;;;5129169;28;20039;-79
2022/11/08 09:42:23;;;;;;;6.57;2.70;;;;;;;;;;5099717;28;20035;-79
2022/11/08 09:44:58;;;;;;;4.03;2.55;;;;;;;;;;5121987;27;20047;-80
2022/11/08 09:47:34;;;;;;;4.70;2.58;;;;;;;;;;5117404;27;20047;-79
2022/11/08 09:50:13;;;;;;;3.72;2.60;;;;;;;;;;5101236;27;20092;-79
2022/11/08 09:52:41;;;;;;;3.80;2.75;;;;;;;;;;5106870;27;20099;-79
2022/11/08 09:55:07;;;;;;;2.90;2.60;;;;;;;;;;5138184;27;20121;-80
2022/11/08 09:57:45;;;;;;;4.53;2.85;;;;;;;;;;5111784;27;20117;-80
2022/11/08 10:00:12;;;;;;;3.80;2.80;;;;;;;;;;5133720;27;20091;-79
2022/11/08 10:02:38;;;;;;;4.18;3.13;;;;;;;;;;5131666;27;20040;-79
2022/11/08 10:05:08;;;;;;;6.75;2.70;;;;;;;;;;5125486;27;20069;-80
2022/11/08 10:07:56;;;;;;;3.38;2.72;;;;;;;;;;5115264;27;20042;-79
2022/11/08 10:10:28;;;;;;;3.05;2.67;;;;;;;;;;5113558;27;20126;-80
2022/11/08 10:13:10;;;;;;;4.68;2.47;;;;;;;;;;5130582;27;20467;-80
2022/11/08 10:15:51;;;;;;;2.83;2.50;;;;;;;;;;5113261;27;20095;-79
2022/11/08 10:18:26;;;;;;;5.32;2.75;;;;;;;;;;5106445;27;20118;-79
2022/11/08 10:21:11;;;;;;;3.45;2.60;;;;;;;;;;5119711;27;20104;-80
2022/11/08 10:23:44;;;;;;;3.40;2.42;;;;;;;;;;5124827;27;20039;-79
2022/11/08 10:26:23;;;;;;;3.63;2.65;;;;;;;;;;5123749;27;20963;-79
2022/11/08 10:28:58;;;;;;;4.35;2.70;;;;;;;;;;5105529;27;20431;-80
2022/11/08 10:31:28;;;;;;;3.90;2.47;;;;;;;;;;5103092;27;20042;-79
2022/11/08 10:33:54;;;;;;;3.45;2.80;;;;;;;;;;5104406;27;20055;-79
2022/11/08 10:36:26;;;;;;;3.92;2.50;;;;;;;;;;5116004;27;20055;-78
2022/11/08 10:39:10;;;;;;;3.08;2.40;;;;;;;;;;5131977;27;20055;-78
2022/11/08 10:41:54;;;;;;;5.28;2.70;;;;;;;;;;5130269;27;20040;-79
2022/11/08 10:44:23;;;;;;;3.35;2.28;;;;;;;;;;5109065;27;20039;-79
2022/11/08 10:46:55;;;;;;;4.13;2.58;;;;;;;;;;5108957;27;20387;-78
2022/11/08 10:49:24;;;;;;;5.07;2.40;;;;;;;;;;5130622;27;20047;-79
2022/11/08 10:51:53;;;;;;;3.22;2.72;;;;;;;;;;5111545;28;20040;-78
2022/11/08 10:54:37;;;;;;;3.50;2.70;;;;;;;;;;5114286;27;20069;-78
2022/11/08 10:57:03;;;;;;;3.45;2.80;;;;;;;;;;5112966;27;20042;-78
2022/11/08 10:59:30;;;;;;;5.38;2.70;;;;;;;;;;5110949;27;20486;-77
2022/11/08 11:01:56;;;;;;;4.05;2.47;;;;;;;;;;5111749;27;20050;-79
2022/11/08 11:04:27;;;;;;;5.07;2.92;;;;;;;;;;5110516;27;20432;-78
2022/11/08 11:06:54;;;;;;;2.80;2.50;;;;;;;;;;5131602;27;20071;-78
2022/11/08 11:09:21;;;;;;;3.03;2.60;;;;;;;;;;5127640;27;20429;-79
2022/11/08 11:11:55;;;;;;;4.07;2.38;;;;;;;;;;5125623;27;20035;-79
2022/11/08 11:14:21;;;;;;;2.75;2.50;;;;;;;;;;5107512;27;20119;-79
2022/11/08 11:16:47;;;;;;;3.42;2.45;;;;;;;;;;5102062;27;20085;-78
2022/11/08 11:19:14;;;;;;;4.85;2.78;;;;;;;;;;5102169;27;21491;-79
2022/11/08 11:21:42;;;;;;;3.72;2.53;;;;;;;;;;5117285;27;20088;-79
2022/11/08 11:24:10;;;;;;;4.63;2.75;;;;;;;;;;5119426;27;20040;-79
2022/11/08 11:26:47;;;;;;;4.72;2.75;;;;;;;;;;5101394;27;20043;-79
2022/11/08 11:29:21;;;;;;;4.93;2.67;;;;;;;;;;5124483;27;20510;-79
2022/11/08 11:31:49;;;;;;;3.35;2.65;;;;;;;;;;5117640;27;20053;-79
2022/11/08 11:34:18;;;;;;;3.05;2.67;;;;;;;;;;5110478;27;20047;-79
2022/11/08 11:36:54;;;;;;;3.88;2.92;;;;;;;;;;5140533;27;20039;-78
2022/11/08 11:39:44;;;;;;;3.95;2.90;;;;;;;;;;5109221;27;20046;-79
2022/11/08 11:42:29;;;;;;;4.88;3.25;;;;;;;;;;5126554;27;20367;-79
2022/11/08 11:44:58;;;;;;;5.07;2.70;;;;;;;;;;5105136;27;20427;-79
2022/11/08 11:47:28;;;;;;;4.22;2.67;;;;;;;;;;5125089;27;20043;-79
2022/11/08 11:50:09;;;;;;;2.88;2.63;;;;;;;;;;5108735;27;20518;-78
2022/11/08 11:52:35;;;;;;;3.83;2.85;;;;;;;;;;5137650;27;20050;-79
2022/11/08 11:55:02;;;;;;;3.58;2.65;;;;;;;;;;5102559;27;20405;-80
2022/11/08 11:57:43;;;;;;;6.38;2.85;;;;;;;;;;5122575;27;20078;-79
2022/11/08 12:00:09;;;;;;;6.05;3.00;;;;;;;;;;5106447;27;20066;-79
2022/11/08 12:02:41;;;;;;;5.15;2.72;;;;;;;;;;5124999;27;20114;-79
2022/11/08 12:05:20;;;;;;;4.72;2.70;;;;;;;;;;5114119;27;20482;-79
2022/11/08 12:07:57;;;;;;;4.07;2.75;;;;;;;;;;5085988;27;20047;-79
2022/11/08 12:10:23;;;;;;;7.47;3.10;;;;;;;;;;5095014;27;20051;-79
2022/11/08 12:12:55;;;;;;;3.08;2.60;;;;;;;;;;5100176;28;20058;-80
2022/11/08 12:15:24;;;;;;;4.07;2.90;;;;;;;;;;5104954;27;20043;-79
2022/11/08 12:18:09;;;;;;;4.70;2.80;;;;;;;;;;5109354;27;20047;-79
2022/11/08 12:20:38;;;;;;;3.10;2.80;;;;;;;;;;5110747;27;20039;-80
2022/11/08 12:23:23;;;;;;;2.72;2.53;;;;;;;;;;5109076;27;20035;-79
2022/11/08 12:26:00;;;;;;;3.80;2.80;;;;;;;;;;5122540;27;20092;-79
2022/11/08 12:28:34;;;;;;;4.25;2.90;;;;;;;;;;5130236;27;20387;-79
2022/11/08 12:31:14;;;;;;;6.50;2.85;;;;;;;;;;5128609;27;20051;-80
2022/11/08 12:33:52;;;;;;;5.57;3.38;;;;;;;;;;5129082;27;20076;-78
2022/11/08 12:36:19;;;;;;;5.00;2.90;;;;;;;;;;5112091;27;20067;-80
2022/11/08 12:39:03;;;;;;;6.20;2.88;;;;;;;;;;5100533;28;20043;-79
2022/11/08 12:41:37;;;;;;;4.55;2.67;;;;;;;;;;5118119;27;20047;-80
2022/11/08 12:44:09;;;;;;;3.13;2.80;;;;;;;;;;5107393;27;20035;-80
2022/11/08 12:46:42;;;;;;;4.03;2.78;;;;;;;;;;5119480;27;20079;-80
2022/11/08 12:49:08;;;;;;;;;;;;;;;;;;5102674;28;20047;-79
2022/11/08 12:51:51;;;;;;;3.97;2.88;;;;;;;;;;5110898;28;19919;-79
2022/11/08 12:54:23;;;;;;;4.18;3.00;;;;;;;;;;5140815;27;20054;-79
2022/11/08 12:56:53;;;;;;;5.05;2.83;;;;;;;;;;5126237;28;20043;-79
2022/11/08 12:59:28;;;;;;;4.13;2.85;;;;;;;;;;5100235;28;20501;-80
2022/11/08 13:01:55;;;;;;;3.40;2.92;;;;;;;;;;5126760;27;20078;-80
2022/11/08 13:04:28;;;;;;;3.60;2.75;;;;;;;;;;5098254;28;20047;-79
2022/11/08 13:06:55;;;;;;;;;;;;;;;;;;5104138;28;20058;-80
2022/11/08 13:09:44;;;;;;;4.18;2.78;;;;;;;;;;5132450;27;19916;-80
2022/11/08 13:12:22;;;;;;;3.17;2.70;;;;;;;;;;5138301;27;20044;-81
2022/11/08 13:14:48;;;;;;;3.47;2.75;;;;;;;;;;5122472;27;20051;-80
2022/11/08 13:17:25;;;;;;;3.13;2.50;;;;;;;;;;5101712;27;20171;-80
2022/11/08 13:19:51;;;;;;;3.95;3.00;;;;;;;;;;5122196;28;20035;-79
2022/11/08 13:22:32;;;;;;;3.42;2.60;;;;;;;;;;5110944;28;20062;-79
2022/11/08 13:24:59;;;;;;;6.45;2.90;;;;;;;;;;5095096;28;20039;-80
2022/11/08 13:27:36;;;;;;;4.47;2.58;;;;;;;;;;5111441;27;20040;-79
2022/11/08 13:30:03;;;;;;;3.28;2.78;;;;;;;;;;5115559;27;20043;-79
2022/11/08 13:32:38;;;;;;;6.35;2.90;;;;;;;;;;5113627;27;20048;-79
2022/11/08 13:35:11;;;;;;;4.65;3.13;;;;;;;;;;5125091;27;20043;-79
2022/11/08 13:37:49;;;;;;;5.07;3.00;;;;;;;;;;5109384;27;20054;-79
2022/11/08 13:40:27;;;;;;;3.20;2.90;;;;;;;;;;5105746;27;20047;-79
2022/11/08 13:43:13;;;;;;;5.03;3.00;;;;;;;;;;5114732;27;20132;-79
2022/11/08 13:45:39;;;;;;;5.15;3.03;;;;;;;;;;5116603;27;20043;-79
2022/11/08 13:48:24;;;;;;;4.47;3.00;;;;;;;;;;5116900;27;20047;-80
2022/11/08 13:50:51;;;;;;;4.47;2.72;;;;;;;;;;5129299;27;20047;-78
2022/11/08 13:53:20;;;;;;;6.60;3.17;;;;;;;;;;5131934;27;20042;-78
2022/11/08 13:55:48;;;;;;;4.70;2.90;;;;;;;;;;5103435;27;20398;-79
2022/11/08 13:58:32;;;;;;;2.88;2.67;;;;;;;;;;5114293;27;20367;-78
2022/11/08 14:00:59;;;;;;;4.47;2.92;;;;;;;;;;5131937;27;20061;-78
2022/11/08 14:03:34;;;;;;;4.82;2.90;;;;;;;;;;5110779;27;20198;-79
2022/11/08 14:06:06;;;;;;;4.45;3.13;;;;;;;;;;5111965;27;20039;-78
2022/11/08 14:08:41;;;;;;;8.63;3.30;;;;;;;;;;5110361;27;20080;-78
2022/11/08 14:11:18;;;;;;;6.93;3.03;;;;;;;;;;5123157;27;20038;-78
2022/11/08 14:13:55;;;;;;;4.20;2.90;;;;;;;;;;5116409;27;20047;-79
2022/11/08 14:16:24;;;;;;;4.40;2.90;;;;;;;;;;5116111;27;20047;-78
2022/11/08 14:18:50;;;;;;;5.57;3.00;;;;;;;;;;5109400;27;20047;-78
2022/11/08 14:21:21;;;;;;;3.80;2.97;;;;;;;;;;5134475;27;20070;-78
2022/11/08 14:23:49;;;;;;;6.90;3.42;;;;;;;;;;5112769;27;20043;-78
2022/11/08 14:26:23;;;;;;;4.32;3.05;;;;;;;;;;5114157;27;20498;-78
2022/11/08 14:28:49;;;;;;;4.95;2.95;;;;;;;;;;5129124;27;20079;-78
2022/11/08 14:31:25;;;;;;;3.83;3.00;;;;;;;;;;5131654;27;20057;-78
2022/11/08 14:33:51;;;;;;;4.15;2.97;;;;;;;;;;5110517;27;20562;-79
2022/11/08 14:36:18;;;;;;;5.30;3.20;;;;;;;;;;5110155;27;20075;-78
2022/11/08 14:38:46;;;;;;;4.22;3.00;;;;;;;;;;5132215;27;20067;-78
2022/11/08 14:41:15;;;;;;;4.53;3.38;;;;;;;;;;5129144;27;20032;-78
2022/11/08 14:43:43;;;;;;;3.75;3.15;;;;;;;;;;5111855;27;20047;-78
2022/11/08 14:46:13;;;;;;;5.97;3.03;;;;;;;;;;5105839;27;20051;-78
2022/11/08 14:48:48;;;;;;;4.20;2.97;;;;;;;;;;5120628;27;20055;-78
2022/11/08 14:51:14;;;;;;;5.70;3.05;;;;;;;;;;5131644;27;20050;-79
2022/11/08 14:53:53;;;;;;;5.47;2.97;;;;;;;;;;5120057;27;20043;-78
2022/11/08 14:56:19;;;;;;;4.03;3.10;;;;;;;;;;5115694;27;20111;-79
2022/11/08 14:58:46;;;;;;;4.75;3.05;;;;;;;;;;5102562;27;20085;-78
2022/11/08 15:01:15;;;;;;;4.88;3.10;;;;;;;;;;5115062;27;20043;-80
2022/11/08 15:03:45;;;;;;;7.03;3.05;;;;;;;;;;5115325;27;20834;-79
2022/11/08 15:06:14;;;;;;;4.25;3.05;;;;;;;;;;5130587;27;20084;-78
2022/11/08 15:08:51;;;;;;;4.18;3.00;;;;;;;;;;5130626;27;20039;-79
2022/11/08 15:11:28;;;;;;;5.22;3.15;;;;;;;;;;5124573;27;20074;-79
2022/11/08 15:13:56;;;;;;;3.78;2.78;;;;;;;;;;5111739;27;20047;-81